Time,TemperatureF,DewpointF,PressureIn,WindDirection,WindDirectionDegrees,WindSpeedMPH,WindSpeedGustMPH,Humidity,HourlyPrecipIn,Conditions,Clouds,dailyrainin,SolarRadiationWatts/m^2,SoftwareType,DateUTC
2013-02-08 00:00:00,33.1,31.6,29.94,NW,313,12.7,12.7,94,0.00,RA,,0.00,0.0,WeatherDisplay:10.37,2013-02-08 06:00:00,
2013-02-08 00:05:00,33.1,31.6,29.94,NW,321,13.8,13.8,94,0.00,RA,,0.00,0.0,WeatherDisplay:10.37,2013-02-08 06:05:00,
2013-02-08 00:10:00,33.0,31.5,29.94,NW,314,11.5,11.5,94,0.00,RA,,0.00,0.0,WeatherDisplay:10.37,2013-02-08 06:10:00,
2013-02-08 00:15:00,33.0,31.5,29.94,NW,322,13.8,13.8,94,0.00,OVC,,0.00,0.0,WeatherDisplay:10.37,2013-02-08 06:15:00,
2013-02-08 00:20:00,32.9,31.4,29.94,NNW,327,13.8,13.8,94,0.00,OVC,,0.00,0.0,WeatherDisplay:10.37,2013-02-08 06:20:00,
2013-02-08 00:25:00,32.8,31.3,29.94,NW,319,11.5,11.5,94,0.00,OVC,,0.00,0.0,WeatherDisplay:10.37,2013-02-08 06:25:00,
2013-02-08 00:31:00,32.8,31.3,29.95,NW,321,14.0,14.0,94,0.00,OVC,,0.00,0.0,WeatherDisplay:10.37,2013-02-08 06:31:00,
2013-02-08 00:36:00,32.7,31.2,29.95,NW,323,11.5,11.5,94,0.00,-SN,,0.00,0.0,WeatherDisplay:10.37,2013-02-08 06:36:00,
2013-02-08 00:41:00,32.7,31.2,29.95,NW,318,11.5,11.5,94,0.00,-SN,,0.00,0.0,WeatherDisplay:10.37,2013-02-08 06:41:00,
2013-02-08 00:46:00,32.6,31.1,29.95,NW,313,11.5,11.5,94,0.00,-SN,,0.00,0.0,WeatherDisplay:10.37,2013-02-08 06:46:00,
2013-02-08 00:51:00,32.6,31.1,29.95,NW,304,11.5,11.5,94,0.00,-SN,,0.00,0.0,WeatherDisplay:10.37,2013-02-08 06:51:00,
2013-02-08 00:56:00,32.6,31.3,29.95,NW,309,12.7,12.7,95,0.00,-SN,,0.00,0.0,WeatherDisplay:10.37,2013-02-08 06:56:00,
2013-02-08 01:01:00,32.6,31.3,29.96,WNW,300,12.0,12.0,95,0.00,-SN,,0.00,0.0,WeatherDisplay:10.37,2013-02-08 07:01:00,
2013-02-08 01:06:00,32.6,31.3,29.96,NW,323,11.5,11.5,95,0.00,-SN,,0.00,0.0,WeatherDisplay:10.37,2013-02-08 07:06:00,
2013-02-08 01:11:00,32.6,31.3,29.96,NW,311,12.7,12.7,95,0.00,-SN,,0.00,0.0,WeatherDisplay:10.37,2013-02-08 07:11:00,
2013-02-08 01:16:00,32.6,31.3,29.97,NW,319,15.0,15.0,95,0.00,-SN,,0.00,0.0,WeatherDisplay:10.37,2013-02-08 07:16:00,
2013-02-08 01:21:00,32.6,31.3,29.97,WNW,292,13.0,13.0,95,0.00,-SN,,0.00,0.0,WeatherDisplay:10.37,2013-02-08 07:21:00,
2013-02-08 01:26:00,32.6,31.1,29.98,NW,312,11.0,11.0,94,0.00,-SN,,0.00,0.0,WeatherDisplay:10.37,2013-02-08 07:26:00,
2013-02-08 01:31:00,32.6,31.1,29.98,WNW,302,11.5,11.5,94,0.00,OVC,,0.00,0.0,WeatherDisplay:10.37,2013-02-08 07:31:00,
2013-02-08 01:36:00,32.5,31.0,29.98,NW,311,15.0,15.0,94,0.00,OVC,,0.00,0.0,WeatherDisplay:10.37,2013-02-08 07:36:00,
2013-02-08 01:41:00,32.5,31.0,29.98,NW,313,12.7,12.7,94,0.00,OVC,,0.00,0.0,WeatherDisplay:10.37,2013-02-08 07:41:00,
2013-02-08 01:46:00,32.4,30.9,29.99,NW,309,13.8,13.8,94,0.00,OVC,,0.00,0.0,WeatherDisplay:10.37,2013-02-08 07:46:00,
2013-02-08 01:51:00,32.2,30.7,29.99,NW,309,15.0,15.0,94,0.00,OVC,,0.00,0.0,WeatherDisplay:10.37,2013-02-08 07:51:00,
2013-02-08 01:56:00,31.9,30.1,29.99,NW,305,15.0,15.0,93,0.00,OVC,,0.00,0.0,WeatherDisplay:10.37,2013-02-08 07:56:00,
2013-02-08 02:01:00,31.8,30.0,29.99,WSW,252,13.8,13.8,93,0.00,OVC,,0.00,0.0,WeatherDisplay:10.37,2013-02-08 08:01:00,
2013-02-08 02:06:00,31.8,30.0,29.99,NW,321,19.6,19.6,93,0.00,OVC,,0.00,0.0,WeatherDisplay:10.37,2013-02-08 08:06:00,
2013-02-08 02:11:00,31.7,29.9,30.00,NW,310,19.6,19.6,93,0.00,OVC,,0.00,0.0,WeatherDisplay:10.37,2013-02-08 08:11:00,
2013-02-08 02:16:00,31.7,29.9,30.00,NNW,344,14.0,14.0,93,0.00,OVC,,0.00,0.0,WeatherDisplay:10.37,2013-02-08 08:16:00,
2013-02-08 02:21:00,31.6,29.5,30.00,NW,315,19.6,19.6,92,0.00,OVC,,0.00,0.0,WeatherDisplay:10.37,2013-02-08 08:21:00,
2013-02-08 02:26:00,31.6,29.5,30.00,NW,310,16.1,16.1,92,0.00,OVC,,0.00,0.0,WeatherDisplay:10.37,2013-02-08 08:26:00,
2013-02-08 02:31:00,31.6,29.5,30.00,NW,309,18.4,18.4,92,0.00,OVC,,0.00,0.0,WeatherDisplay:10.37,2013-02-08 08:31:00,
2013-02-08 02:36:00,31.5,29.2,30.01,NW,304,18.4,18.4,91,0.00,OVC,,0.00,0.0,WeatherDisplay:10.37,2013-02-08 08:36:00,
2013-02-08 02:41:00,31.3,29.0,30.01,NW,314,15.0,15.0,91,0.00,OVC,,0.00,0.0,WeatherDisplay:10.37,2013-02-08 08:41:00,
2013-02-08 02:46:00,31.2,28.9,30.02,NW,313,17.0,17.0,91,0.00,OVC,,0.00,0.0,WeatherDisplay:10.37,2013-02-08 08:46:00,
2013-02-08 02:51:00,31.1,28.8,30.02,NW,322,17.3,17.3,91,0.00,OVC,,0.00,0.0,WeatherDisplay:10.37,2013-02-08 08:51:00,
2013-02-08 02:56:00,30.9,28.6,30.02,NW,319,15.0,15.0,91,0.00,OVC,,0.00,0.0,WeatherDisplay:10.37,2013-02-08 08:56:00,
2013-02-08 03:01:00,30.8,28.5,30.03,NW,304,17.3,17.3,91,0.00,OVC,,0.00,0.0,WeatherDisplay:10.37,2013-02-08 09:01:00,
2013-02-08 03:06:00,30.7,28.4,30.03,NW,325,16.1,16.1,91,0.00,OVC,,0.00,0.0,WeatherDisplay:10.37,2013-02-08 09:06:00,
2013-02-08 03:11:00,30.6,28.3,30.04,NNW,327,15.0,15.0,91,0.00,OVC,,0.00,0.0,WeatherDisplay:10.37,2013-02-08 09:11:00,
2013-02-08 03:16:00,30.3,28.0,30.04,NW,306,16.1,16.1,91,0.00,OVC,,0.00,0.0,WeatherDisplay:10.37,2013-02-08 09:16:00,
2013-02-08 03:21:00,30.0,27.7,30.04,NNW,328,19.6,19.6,91,0.00,OVC,,0.00,0.0,WeatherDisplay:10.37,2013-02-08 09:21:00,
2013-02-08 03:26:00,29.8,27.5,30.05,NW,321,18.4,18.4,91,0.00,OVC,,0.00,0.0,WeatherDisplay:10.37,2013-02-08 09:26:00,
2013-02-08 03:31:00,29.7,27.4,30.05,NNW,338,20.7,20.7,91,0.00,OVC,,0.00,0.0,WeatherDisplay:10.37,2013-02-08 09:31:00,
2013-02-08 03:36:00,29.7,27.4,30.05,NW,321,18.0,18.0,91,0.00,OVC,,0.00,0.0,WeatherDisplay:10.37,2013-02-08 09:36:00,
2013-02-08 03:41:00,29.4,26.8,30.06,NW,324,20.7,20.7,90,0.00,OVC,,0.00,0.0,WeatherDisplay:10.37,2013-02-08 09:41:00,
2013-02-08 03:46:00,29.2,26.4,30.06,NW,324,21.0,21.0,89,0.00,OVC,,0.00,0.0,WeatherDisplay:10.37,2013-02-08 09:46:00,
2013-02-08 03:51:00,29.2,26.4,30.06,NNW,338,19.6,19.6,89,0.00,OVC,,0.00,0.0,WeatherDisplay:10.37,2013-02-08 09:51:00,
2013-02-08 03:56:00,29.1,26.5,30.06,NW,322,16.0,16.0,90,0.00,OVC,,0.00,0.0,WeatherDisplay:10.37,2013-02-08 09:56:00,
2013-02-08 04:01:00,28.8,26.2,30.07,NNW,328,17.3,17.3,90,0.00,OVC,,0.00,0.0,WeatherDisplay:10.37,2013-02-08 10:01:00,
2013-02-08 04:06:00,28.6,26.0,30.07,NNW,330,16.1,16.1,90,0.00,OVC,,0.00,0.0,WeatherDisplay:10.37,2013-02-08 10:06:00,
2013-02-08 04:11:00,28.5,25.9,30.07,NW,309,16.1,16.1,90,0.00,OVC,,0.00,0.0,WeatherDisplay:10.37,2013-02-08 10:11:00,
2013-02-08 04:16:00,28.4,25.8,30.07,NNW,344,16.1,16.1,90,0.00,OVC,,0.00,0.0,WeatherDisplay:10.37,2013-02-08 10:16:00,
2013-02-08 04:21:00,28.4,26.1,30.07,NNW,331,16.1,16.1,91,0.00,OVC,,0.00,0.0,WeatherDisplay:10.37,2013-02-08 10:21:00,
2013-02-08 04:26:00,28.5,25.9,30.08,NW,324,16.1,16.1,90,0.00,OVC,,0.00,0.0,WeatherDisplay:10.37,2013-02-08 10:26:00,
2013-02-08 04:31:00,28.3,25.7,30.08,NNW,327,19.6,19.6,90,0.00,OVC,,0.00,0.0,WeatherDisplay:10.37,2013-02-08 10:31:00,
2013-02-08 04:36:00,28.3,25.7,30.08,NNW,329,19.6,19.6,90,0.00,OVC,,0.00,0.0,WeatherDisplay:10.37,2013-02-08 10:36:00,
2013-02-08 04:41:00,28.1,25.5,30.08,NW,320,20.7,20.7,90,0.00,OVC,,0.00,0.0,WeatherDisplay:10.37,2013-02-08 10:41:00,
2013-02-08 04:47:00,28.1,25.5,30.09,NNW,331,17.3,17.3,90,0.00,OVC,,0.00,0.0,WeatherDisplay:10.37,2013-02-08 10:47:00,
2013-02-08 04:52:00,28.0,25.4,30.09,NW,322,17.3,17.3,90,0.00,OVC,,0.00,0.0,WeatherDisplay:10.37,2013-02-08 10:52:00,
2013-02-08 04:57:00,27.9,25.3,30.09,NW,318,19.6,19.6,90,0.00,OVC,,0.00,0.0,WeatherDisplay:10.37,2013-02-08 10:57:00,
2013-02-08 05:02:00,27.9,25.3,30.09,NNW,336,19.6,19.6,90,0.00,OVC,,0.00,0.0,WeatherDisplay:10.37,2013-02-08 11:02:00,
2013-02-08 05:07:00,27.7,24.9,30.10,NW,319,20.7,20.7,89,0.00,OVC,,0.00,0.0,WeatherDisplay:10.37,2013-02-08 11:07:00,
2013-02-08 05:12:00,27.4,24.6,30.11,NW,323,18.4,18.4,89,0.00,OVC,,0.00,0.0,WeatherDisplay:10.37,2013-02-08 11:12:00,
2013-02-08 05:17:00,27.4,24.6,30.11,NW,317,17.3,17.3,89,0.00,OVC,,0.00,0.0,WeatherDisplay:10.37,2013-02-08 11:17:00,
2013-02-08 05:22:00,27.3,24.5,30.11,NNW,332,16.1,16.1,89,0.00,OVC,,0.00,0.0,WeatherDisplay:10.37,2013-02-08 11:22:00,
2013-02-08 05:27:00,27.2,24.4,30.11,WNW,303,19.6,19.6,89,0.00,OVC,,0.00,0.0,WeatherDisplay:10.37,2013-02-08 11:27:00,
2013-02-08 05:32:00,27.2,24.7,30.11,North,360,16.1,16.1,90,0.00,OVC,,0.00,0.0,WeatherDisplay:10.37,2013-02-08 11:32:00,
2013-02-08 05:37:00,27.1,24.6,30.12,NNW,337,17.3,17.3,90,0.00,OVC,,0.00,0.0,WeatherDisplay:10.37,2013-02-08 11:37:00,
2013-02-08 05:42:00,27.0,24.2,30.11,NNW,330,19.0,19.0,89,0.00,OVC,,0.00,0.0,WeatherDisplay:10.37,2013-02-08 11:42:00,
2013-02-08 05:47:00,26.8,24.0,30.11,NNW,333,15.0,15.0,89,0.00,OVC,,0.00,0.0,WeatherDisplay:10.37,2013-02-08 11:47:00,
2013-02-08 05:52:00,26.7,23.9,30.11,NNW,333,18.4,18.4,89,0.00,OVC,,0.00,0.0,WeatherDisplay:10.37,2013-02-08 11:52:00,
2013-02-08 05:57:00,26.5,23.7,30.12,NW,324,16.1,16.1,89,0.00,OVC,,0.00,0.0,WeatherDisplay:10.37,2013-02-08 11:57:00,
2013-02-08 06:02:00,26.4,23.6,30.12,NW,323,16.1,16.1,89,0.00,OVC,,0.00,0.0,WeatherDisplay:10.37,2013-02-08 12:02:00,
2013-02-08 06:07:00,26.3,23.5,30.13,NNW,331,16.1,16.1,89,0.00,OVC,,0.00,0.0,WeatherDisplay:10.37,2013-02-08 12:07:00,
2013-02-08 06:12:00,26.3,23.5,30.14,NW,324,18.4,18.4,89,0.00,OVC,,0.00,0.0,WeatherDisplay:10.37,2013-02-08 12:12:00,
2013-02-08 06:17:00,26.3,23.5,30.14,NW,309,18.4,18.4,89,0.00,OVC,,0.00,0.0,WeatherDisplay:10.37,2013-02-08 12:17:00,
2013-02-08 06:22:00,26.3,23.5,30.15,NW,322,17.3,17.3,89,0.00,OVC,,0.00,0.0,WeatherDisplay:10.37,2013-02-08 12:22:00,
2013-02-08 06:27:00,26.3,23.5,30.15,NNW,329,19.6,19.6,89,0.00,OVC,,0.00,0.0,WeatherDisplay:10.37,2013-02-08 12:27:00,
2013-02-08 06:32:00,26.3,23.5,30.16,NNW,336,19.6,19.6,89,0.00,OVC,,0.00,0.0,WeatherDisplay:10.37,2013-02-08 12:32:00,
2013-02-08 06:37:00,26.3,23.5,30.16,NW,323,19.6,19.6,89,0.00,OVC,,0.00,0.0,WeatherDisplay:10.37,2013-02-08 12:37:00,
2013-02-08 06:42:00,26.3,23.5,30.16,NNW,334,15.0,15.0,89,0.00,OVC,,0.00,0.0,WeatherDisplay:10.37,2013-02-08 12:42:00,
2013-02-08 06:47:00,26.4,23.9,30.17,NW,306,13.0,13.0,90,0.00,OVC,,0.00,0.0,WeatherDisplay:10.37,2013-02-08 12:47:00,
2013-02-08 06:52:00,26.3,23.5,30.17,NW,321,15.0,15.0,89,0.00,OVC,,0.00,0.0,WeatherDisplay:10.37,2013-02-08 12:52:00,
2013-02-08 06:57:00,26.4,23.9,30.17,NNW,330,17.3,17.3,90,0.00,OVC,,0.00,0.0,WeatherDisplay:10.37,2013-02-08 12:57:00,
2013-02-08 07:02:00,26.5,24.0,30.17,NNW,336,17.3,17.3,90,0.00,OVC,,0.00,0.0,WeatherDisplay:10.37,2013-02-08 13:02:00,
2013-02-08 07:07:00,26.5,23.7,30.18,NW,317,16.1,16.1,89,0.00,OVC,,0.00,0.0,WeatherDisplay:10.37,2013-02-08 13:07:00,
2013-02-08 07:12:00,26.5,24.0,30.18,NW,315,15.0,15.0,90,0.00,OVC,,0.00,0.0,WeatherDisplay:10.37,2013-02-08 13:12:00,
2013-02-08 07:17:00,26.5,24.0,30.18,NW,315,17.0,17.0,90,0.00,OVC,,0.00,0.0,WeatherDisplay:10.37,2013-02-08 13:17:00,
2013-02-08 07:22:00,26.5,24.0,30.18,NNW,327,17.3,17.3,90,0.00,OVC,,0.00,9.0,WeatherDisplay:10.37,2013-02-08 13:22:00,
2013-02-08 07:27:00,26.5,24.0,30.18,NW,317,15.0,15.0,90,0.00,OVC,,0.00,12.0,WeatherDisplay:10.37,2013-02-08 13:27:00,
2013-02-08 07:32:00,26.4,23.6,30.19,NNW,330,15.0,15.0,89,0.00,OVC,,0.00,14.0,WeatherDisplay:10.37,2013-02-08 13:32:00,
2013-02-08 07:37:00,26.4,23.6,30.19,NNW,329,16.1,16.1,89,0.00,OVC,,0.00,16.0,WeatherDisplay:10.37,2013-02-08 13:37:00,
2013-02-08 07:42:00,26.5,24.0,30.20,NW,311,12.7,12.7,90,0.00,OVC,,0.00,16.0,WeatherDisplay:10.37,2013-02-08 13:42:00,
2013-02-08 07:47:00,26.5,23.7,30.20,WNW,300,15.0,15.0,89,0.00,OVC,,0.00,16.0,WeatherDisplay:10.37,2013-02-08 13:47:00,
2013-02-08 07:52:00,26.5,23.7,30.20,NW,324,15.0,15.0,89,0.00,OVC,,0.00,28.0,WeatherDisplay:10.37,2013-02-08 13:52:00,
2013-02-08 07:57:00,26.6,23.8,30.21,NNW,327,13.8,13.8,89,0.00,OVC,,0.00,46.0,WeatherDisplay:10.37,2013-02-08 13:57:00,
2013-02-08 08:02:00,26.8,24.3,30.21,NW,313,15.0,15.0,90,0.00,OVC,,0.00,37.0,WeatherDisplay:10.37,2013-02-08 14:02:00,
2013-02-08 08:07:00,26.8,24.0,30.22,WNW,297,13.8,13.8,89,0.00,OVC,,0.00,42.0,WeatherDisplay:10.37,2013-02-08 14:07:00,
2013-02-08 08:12:00,26.9,24.1,30.22,NW,319,12.7,12.7,89,0.00,OVC,,0.00,47.0,WeatherDisplay:10.37,2013-02-08 14:12:00,
2013-02-08 08:17:00,27.0,24.2,30.22,NW,321,13.8,13.8,89,0.00,OVC,,0.00,53.0,WeatherDisplay:10.37,2013-02-08 14:17:00,
2013-02-08 08:22:00,27.0,24.2,30.22,NW,314,16.1,16.1,89,0.00,OVC,,0.00,77.0,WeatherDisplay:10.37,2013-02-08 14:22:00,
2013-02-08 08:27:00,27.1,24.3,30.22,NW,309,20.7,20.7,89,0.00,OVC,,0.00,65.0,WeatherDisplay:10.37,2013-02-08 14:27:00,
2013-02-08 08:32:00,27.2,24.4,30.22,NNW,328,12.0,12.0,89,0.00,OVC,,0.00,67.0,WeatherDisplay:10.37,2013-02-08 14:32:00,
2013-02-08 08:37:00,27.3,24.5,30.22,NW,314,13.0,13.0,89,0.00,OVC,,0.00,74.0,WeatherDisplay:10.37,2013-02-08 14:37:00,
2013-02-08 08:42:00,27.4,24.6,30.22,NW,318,11.0,11.0,89,0.00,OVC,,0.00,109.0,WeatherDisplay:10.37,2013-02-08 14:42:00,
2013-02-08 08:47:00,27.4,24.3,30.23,NW,314,18.0,18.0,88,0.00,OVC,,0.00,98.0,WeatherDisplay:10.37,2013-02-08 14:47:00,
2013-02-08 08:52:00,27.6,25.1,30.23,NW,308,13.0,13.0,90,0.00,OVC,,0.00,127.0,WeatherDisplay:10.37,2013-02-08 14:52:00,
2013-02-08 08:57:00,27.7,24.9,30.23,NW,319,17.3,17.3,89,0.00,OVC,,0.00,97.0,WeatherDisplay:10.37,2013-02-08 14:57:00,
2013-02-08 09:02:00,27.8,25.0,30.24,WNW,303,18.4,18.4,89,0.00,OVC,,0.00,113.0,WeatherDisplay:10.37,2013-02-08 15:02:00,
2013-02-08 09:07:00,27.8,24.7,30.25,NW,316,19.6,19.6,88,0.00,OVC,,0.00,56.0,WeatherDisplay:10.37,2013-02-08 15:07:00,
2013-02-08 09:12:00,27.8,25.0,30.25,NW,312,16.1,16.1,89,0.00,OVC,,0.00,63.0,WeatherDisplay:10.37,2013-02-08 15:12:00,
2013-02-08 09:17:00,27.8,25.0,30.25,NNW,327,13.8,13.8,89,0.00,OVC,,0.00,88.0,WeatherDisplay:10.37,2013-02-08 15:17:00,
2013-02-08 09:22:00,27.8,25.0,30.25,NW,321,19.6,19.6,89,0.00,OVC,,0.00,77.0,WeatherDisplay:10.37,2013-02-08 15:22:00,
2013-02-08 09:28:00,27.9,25.1,30.26,NW,317,16.1,16.1,89,0.00,OVC,,0.00,77.0,WeatherDisplay:10.37,2013-02-08 15:28:00,
2013-02-08 09:33:00,27.9,25.1,30.26,NW,321,19.6,19.6,89,0.00,OVC,,0.00,91.0,WeatherDisplay:10.37,2013-02-08 15:33:00,
2013-02-08 09:38:00,28.1,25.3,30.26,NW,321,16.0,16.0,89,0.00,OVC,,0.00,107.0,WeatherDisplay:10.37,2013-02-08 15:38:00,
2013-02-08 09:43:00,28.2,25.4,30.26,NW,307,16.1,16.1,89,0.00,OVC,,0.00,156.0,WeatherDisplay:10.37,2013-02-08 15:43:00,
2013-02-08 09:48:00,28.4,25.6,30.26,NW,321,15.0,15.0,89,0.00,OVC,,0.00,160.0,WeatherDisplay:10.37,2013-02-08 15:48:00,
2013-02-08 09:53:00,28.4,25.6,30.26,NW,306,18.4,18.4,89,0.00,OVC,,0.00,163.0,WeatherDisplay:10.37,2013-02-08 15:53:00,
2013-02-08 09:58:00,28.4,25.6,30.26,NW,322,17.3,17.3,89,0.00,OVC,,0.00,156.0,WeatherDisplay:10.37,2013-02-08 15:58:00,
2013-02-08 10:03:00,28.4,25.6,30.27,NW,326,15.0,15.0,89,0.00,OVC,,0.00,137.0,WeatherDisplay:10.37,2013-02-08 16:03:00,
2013-02-08 10:08:00,28.4,25.6,30.27,NW,314,13.8,13.8,89,0.00,OVC,,0.00,151.0,WeatherDisplay:10.37,2013-02-08 16:08:00,
2013-02-08 10:13:00,28.5,25.7,30.27,NW,314,14.0,14.0,89,0.00,OVC,,0.00,162.0,WeatherDisplay:10.37,2013-02-08 16:13:00,
2013-02-08 10:18:00,28.6,25.8,30.27,NW,325,15.0,15.0,89,0.00,OVC,,0.00,214.0,WeatherDisplay:10.37,2013-02-08 16:18:00,
2013-02-08 10:23:00,28.8,26.0,30.28,NNW,336,15.0,15.0,89,0.00,OVC,,0.00,195.0,WeatherDisplay:10.37,2013-02-08 16:23:00,
2013-02-08 10:28:00,28.9,26.1,30.28,NW,318,13.8,13.8,89,0.00,OVC,,0.00,153.0,WeatherDisplay:10.37,2013-02-08 16:28:00,
2013-02-08 10:33:00,28.9,26.1,30.29,NNW,332,18.0,18.0,89,0.00,OVC,,0.00,128.0,WeatherDisplay:10.37,2013-02-08 16:33:00,
2013-02-08 10:38:00,28.8,25.7,30.29,WNW,303,18.4,18.4,88,0.00,OVC,,0.00,114.0,WeatherDisplay:10.37,2013-02-08 16:38:00,
2013-02-08 10:43:00,28.9,26.1,30.30,NW,311,13.8,13.8,89,0.00,OVC,,0.00,123.0,WeatherDisplay:10.37,2013-02-08 16:43:00,
2013-02-08 10:48:00,28.9,26.1,30.30,NW,315,15.0,15.0,89,0.00,OVC,,0.00,125.0,WeatherDisplay:10.37,2013-02-08 16:48:00,
2013-02-08 10:53:00,29.0,26.2,30.30,NW,314,18.4,18.4,89,0.00,OVC,,0.00,105.0,WeatherDisplay:10.37,2013-02-08 16:53:00,
2013-02-08 10:58:00,28.9,25.8,30.30,NNW,340,16.1,16.1,88,0.00,OVC,,0.00,130.0,WeatherDisplay:10.37,2013-02-08 16:58:00,
2013-02-08 11:03:00,28.8,25.7,30.29,NNW,330,15.0,15.0,88,0.00,OVC,,0.00,163.0,WeatherDisplay:10.37,2013-02-08 17:03:00,
2013-02-08 11:08:00,29.0,26.2,30.30,NW,314,17.3,17.3,89,0.00,OVC,,0.00,163.0,WeatherDisplay:10.37,2013-02-08 17:08:00,
2013-02-08 11:13:00,29.1,26.0,30.29,NW,316,16.0,16.0,88,0.00,OVC,,0.00,174.0,WeatherDisplay:10.37,2013-02-08 17:13:00,
2013-02-08 11:18:00,29.2,26.1,30.29,NW,313,18.4,18.4,88,0.00,OVC,,0.00,232.0,WeatherDisplay:10.37,2013-02-08 17:18:00,
2013-02-08 11:23:00,29.3,26.2,30.28,NW,311,17.3,17.3,88,0.00,OVC,,0.00,327.0,WeatherDisplay:10.37,2013-02-08 17:23:00,
2013-02-08 11:28:00,29.4,26.6,30.28,NNW,335,15.0,15.0,89,0.00,OVC,,0.00,251.0,WeatherDisplay:10.37,2013-02-08 17:28:00,
2013-02-08 11:33:00,29.4,26.3,30.28,NNW,336,18.4,18.4,88,0.00,OVC,,0.00,297.0,WeatherDisplay:10.37,2013-02-08 17:33:00,
2013-02-08 11:38:00,29.7,26.9,30.28,NW,323,17.3,17.3,89,0.00,OVC,,0.00,227.0,WeatherDisplay:10.37,2013-02-08 17:38:00,
2013-02-08 11:43:00,29.9,26.8,30.28,NW,315,15.0,15.0,88,0.00,OVC,,0.00,299.0,WeatherDisplay:10.37,2013-02-08 17:43:00,
2013-02-08 11:48:00,29.9,26.8,30.28,NW,317,18.4,18.4,88,0.00,OVC,,0.00,265.0,WeatherDisplay:10.37,2013-02-08 17:48:00,
2013-02-08 11:53:00,29.9,27.1,30.28,NNW,344,15.0,15.0,89,0.00,OVC,,0.00,445.0,WeatherDisplay:10.37,2013-02-08 17:53:00,
2013-02-08 11:58:00,30.0,27.2,30.28,NNW,340,18.4,18.4,89,0.00,OVC,,0.00,490.0,WeatherDisplay:10.37,2013-02-08 17:58:00,
2013-02-08 12:03:00,30.6,28.0,30.28,NNW,335,15.0,15.0,90,0.00,OVC,,0.00,390.0,WeatherDisplay:10.37,2013-02-08 18:03:00,
2013-02-08 12:08:00,30.5,27.4,30.28,NNW,329,17.3,17.3,88,0.00,OVC,,0.00,306.0,WeatherDisplay:10.37,2013-02-08 18:08:00,
2013-02-08 12:13:00,30.7,27.8,30.28,NNW,346,12.7,12.7,89,0.00,OVC,,0.00,483.0,WeatherDisplay:10.37,2013-02-08 18:13:00,
2013-02-08 12:18:00,30.7,27.6,30.28,NW,313,12.7,12.7,88,0.00,OVC,,0.00,272.0,WeatherDisplay:10.37,2013-02-08 18:18:00,
2013-02-08 12:23:00,30.8,27.7,30.29,NNW,331,16.1,16.1,88,0.00,OVC,,0.00,397.0,WeatherDisplay:10.37,2013-02-08 18:23:00,
2013-02-08 12:28:00,30.9,27.8,30.29,NNW,343,12.7,12.7,88,0.00,OVC,,0.00,392.0,WeatherDisplay:10.37,2013-02-08 18:28:00,
2013-02-08 12:34:00,30.8,27.4,30.29,NNW,343,16.1,16.1,87,0.00,OVC,,0.00,258.0,WeatherDisplay:10.37,2013-02-08 18:34:00,
2013-02-08 12:39:00,30.9,27.8,30.30,NNW,345,12.0,12.0,88,0.00,OVC,,0.00,269.0,WeatherDisplay:10.37,2013-02-08 18:39:00,
2013-02-08 12:44:00,31.0,27.9,30.30,NNW,335,13.8,13.8,88,0.00,OVC,,0.00,262.0,WeatherDisplay:10.37,2013-02-08 18:44:00,
2013-02-08 12:49:00,31.1,28.0,30.30,NNW,344,16.1,16.1,88,0.00,OVC,,0.00,294.0,WeatherDisplay:10.37,2013-02-08 18:49:00,
2013-02-08 12:54:00,31.0,27.6,30.30,NW,311,15.0,15.0,87,0.00,OVC,,0.00,311.0,WeatherDisplay:10.37,2013-02-08 18:54:00,
2013-02-08 12:59:00,31.0,27.6,30.30,NNW,333,13.8,13.8,87,0.00,OVC,,0.00,218.0,WeatherDisplay:10.37,2013-02-08 18:59:00,
2013-02-08 13:04:00,31.0,27.6,30.30,NW,321,13.8,13.8,87,0.00,OVC,,0.00,257.0,WeatherDisplay:10.37,2013-02-08 19:04:00,
2013-02-08 13:09:00,31.1,27.7,30.30,NNW,328,12.0,12.0,87,0.00,OVC,,0.00,179.0,WeatherDisplay:10.37,2013-02-08 19:09:00,
2013-02-08 13:14:00,31.1,27.7,30.30,NW,323,13.8,13.8,87,0.00,OVC,,0.00,218.0,WeatherDisplay:10.37,2013-02-08 19:14:00,
2013-02-08 13:19:00,31.1,27.7,30.30,NNW,327,15.0,15.0,87,0.00,OVC,,0.00,158.0,WeatherDisplay:10.37,2013-02-08 19:19:00,
2013-02-08 13:24:00,30.9,27.5,30.31,NW,325,15.0,15.0,87,0.00,OVC,,0.00,181.0,WeatherDisplay:10.37,2013-02-08 19:24:00,
2013-02-08 13:29:00,30.9,27.5,30.31,NNW,338,12.7,12.7,87,0.00,OVC,,0.00,183.0,WeatherDisplay:10.37,2013-02-08 19:29:00,
2013-02-08 13:34:00,30.9,27.5,30.31,NW,323,16.1,16.1,87,0.00,OVC,,0.00,155.0,WeatherDisplay:10.37,2013-02-08 19:34:00,
2013-02-08 13:39:00,30.8,27.4,30.31,NNW,333,13.0,13.0,87,0.00,OVC,,0.00,142.0,WeatherDisplay:10.37,2013-02-08 19:39:00,
2013-02-08 13:44:00,31.0,27.6,30.31,NW,325,15.0,15.0,87,0.00,OVC,,0.00,190.0,WeatherDisplay:10.37,2013-02-08 19:44:00,
2013-02-08 13:49:00,31.2,27.8,30.31,NNW,328,12.7,12.7,87,0.00,OVC,,0.00,197.0,WeatherDisplay:10.37,2013-02-08 19:49:00,
2013-02-08 13:54:00,31.0,27.3,30.31,NW,323,13.8,13.8,86,0.00,OVC,,0.00,213.0,WeatherDisplay:10.37,2013-02-08 19:54:00,
2013-02-08 13:59:00,31.1,27.4,30.31,NNW,346,12.0,12.0,86,0.00,OVC,,0.00,178.0,WeatherDisplay:10.37,2013-02-08 19:59:00,
2013-02-08 14:04:00,31.1,27.7,30.31,NW,308,14.0,14.0,87,0.00,OVC,,0.00,209.0,WeatherDisplay:10.37,2013-02-08 20:04:00,
2013-02-08 14:09:00,31.1,27.7,30.31,NW,317,10.4,10.4,87,0.00,OVC,,0.00,197.0,WeatherDisplay:10.37,2013-02-08 20:09:00,
2013-02-08 14:14:00,31.1,27.4,30.31,NNW,342,13.8,13.8,86,0.00,OVC,,0.00,272.0,WeatherDisplay:10.37,2013-02-08 20:14:00,
2013-02-08 14:19:00,31.3,27.6,30.31,NNW,329,12.0,12.0,86,0.00,OVC,,0.00,230.0,WeatherDisplay:10.37,2013-02-08 20:19:00,
2013-02-08 14:24:00,31.3,27.9,30.31,NNW,330,11.0,11.0,87,0.00,OVC,,0.00,255.0,WeatherDisplay:10.37,2013-02-08 20:24:00,
2013-02-08 14:29:00,31.6,27.9,30.31,WNW,288,11.5,11.5,86,0.00,OVC,,0.00,262.0,WeatherDisplay:10.37,2013-02-08 20:29:00,
2013-02-08 14:35:00,31.5,27.8,30.31,NW,318,12.0,12.0,86,0.00,OVC,,0.00,360.0,WeatherDisplay:10.37,2013-02-08 20:35:00,
2013-02-08 14:40:00,31.3,27.6,30.31,NW,311,11.5,11.5,86,0.00,OVC,,0.00,181.0,WeatherDisplay:10.37,2013-02-08 20:40:00,
2013-02-08 14:45:00,31.4,27.7,30.32,NW,317,11.5,11.5,86,0.00,OVC,,0.00,329.0,WeatherDisplay:10.37,2013-02-08 20:45:00,
2013-02-08 14:50:00,31.5,27.8,30.32,NW,305,12.7,12.7,86,0.00,OVC,,0.00,151.0,WeatherDisplay:10.37,2013-02-08 20:50:00,
2013-02-08 14:55:00,31.3,27.9,30.32,NNW,332,11.5,11.5,87,0.00,OVC,,0.00,431.0,WeatherDisplay:10.37,2013-02-08 20:55:00,
2013-02-08 15:00:00,31.2,27.2,30.32,NW,315,12.7,12.7,85,0.00,OVC,,0.00,172.0,WeatherDisplay:10.37,2013-02-08 21:00:00,
2013-02-08 15:05:00,31.4,28.0,30.32,NNW,336,12.0,12.0,87,0.00,OVC,,0.00,209.0,WeatherDisplay:10.37,2013-02-08 21:05:00,
2013-02-08 15:10:00,31.3,27.3,30.32,NW,313,12.7,12.7,85,0.00,OVC,,0.00,149.0,WeatherDisplay:10.37,2013-02-08 21:10:00,
2013-02-08 15:15:00,31.2,27.2,30.33,NW,311,12.7,12.7,85,0.00,OVC,,0.00,450.0,WeatherDisplay:10.37,2013-02-08 21:15:00,
2013-02-08 15:20:00,31.3,27.3,30.33,NW,310,13.0,13.0,85,0.00,OVC,,0.00,142.0,WeatherDisplay:10.37,2013-02-08 21:20:00,
2013-02-08 15:25:00,31.2,27.2,30.33,NW,324,13.8,13.8,85,0.00,OVC,,0.00,151.0,WeatherDisplay:10.37,2013-02-08 21:25:00,
2013-02-08 15:30:00,31.0,27.0,30.33,NW,313,8.1,8.3,85,0.00,OVC,,0.00,176.0,WeatherDisplay:10.37,2013-02-08 21:30:00,
2013-02-08 15:35:00,31.2,27.2,30.33,NNW,338,13.0,13.0,85,0.00,OVC,,0.00,93.0,WeatherDisplay:10.37,2013-02-08 21:35:00,
2013-02-08 15:40:00,30.8,26.8,30.33,NW,319,11.5,11.5,85,0.00,OVC,,0.00,149.0,WeatherDisplay:10.37,2013-02-08 21:40:00,
2013-02-08 15:45:00,30.8,27.1,30.33,NNW,333,11.5,11.5,86,0.00,OVC,,0.00,107.0,WeatherDisplay:10.37,2013-02-08 21:45:00,
2013-02-08 15:50:00,30.8,27.1,30.33,NW,322,10.4,10.4,86,0.00,OVC,,0.00,81.0,WeatherDisplay:10.37,2013-02-08 21:50:00,
2013-02-08 15:55:00,30.8,27.1,30.34,NNW,330,8.1,8.1,86,0.00,OVC,,0.00,121.0,WeatherDisplay:10.37,2013-02-08 21:55:00,
2013-02-08 16:00:00,30.9,27.2,30.34,NNW,328,10.4,10.4,86,0.00,OVC,,0.00,172.0,WeatherDisplay:10.37,2013-02-08 22:00:00,
2013-02-08 16:05:00,30.9,26.9,30.34,NNW,331,11.5,11.5,85,0.00,OVC,,0.00,51.0,WeatherDisplay:10.37,2013-02-08 22:05:00,
2013-02-08 16:10:00,30.6,26.3,30.34,NW,320,9.2,9.2,84,0.00,OVC,,0.00,53.0,WeatherDisplay:10.37,2013-02-08 22:10:00,
2013-02-08 16:15:00,30.5,26.5,30.34,WNW,303,10.4,10.4,85,0.00,OVC,,0.00,70.0,WeatherDisplay:10.37,2013-02-08 22:15:00,
2013-02-08 16:20:00,30.5,26.8,30.34,NW,321,10.4,10.4,86,0.00,OVC,,0.00,51.0,WeatherDisplay:10.37,2013-02-08 22:20:00,
2013-02-08 16:25:00,30.3,26.3,30.34,NW,321,11.5,11.5,85,0.00,OVC,,0.00,30.0,WeatherDisplay:10.37,2013-02-08 22:25:00,
2013-02-08 16:30:00,30.1,26.4,30.34,West,278,12.0,12.0,86,0.00,OVC,,0.00,53.0,WeatherDisplay:10.37,2013-02-08 22:30:00,
2013-02-08 16:35:00,30.0,26.3,30.35,NW,315,8.1,8.1,86,0.00,OVC,,0.00,46.0,WeatherDisplay:10.37,2013-02-08 22:35:00,
2013-02-08 16:40:00,29.9,26.2,30.35,NW,323,6.0,6.0,86,0.00,OVC,,0.00,33.0,WeatherDisplay:10.37,2013-02-08 22:40:00,
2013-02-08 16:45:00,29.9,26.5,30.35,NW,322,8.1,8.1,87,0.00,OVC,,0.00,21.0,WeatherDisplay:10.37,2013-02-08 22:45:00,
2013-02-08 16:50:00,29.9,26.5,30.35,NW,317,8.1,8.1,87,0.00,OVC,,0.00,21.0,WeatherDisplay:10.37,2013-02-08 22:50:00,
2013-02-08 16:55:00,29.9,26.2,30.36,NW,319,9.2,9.2,86,0.00,OVC,,0.00,18.0,WeatherDisplay:10.37,2013-02-08 22:55:00,
2013-02-08 17:00:00,29.9,26.2,30.36,NW,325,11.0,11.0,86,0.00,OVC,,0.00,11.0,WeatherDisplay:10.37,2013-02-08 23:00:00,
2013-02-08 17:05:00,29.7,26.0,30.37,NW,309,10.4,10.4,86,0.00,OVC,,0.00,5.0,WeatherDisplay:10.37,2013-02-08 23:05:00,
2013-02-08 17:10:00,29.7,26.0,30.37,NW,305,11.5,11.5,86,0.00,OVC,,0.00,0.0,WeatherDisplay:10.37,2013-02-08 23:10:00,
2013-02-08 17:15:00,29.7,26.0,30.37,WNW,291,7.0,7.0,86,0.00,OVC,,0.00,0.0,WeatherDisplay:10.37,2013-02-08 23:15:00,
2013-02-08 17:20:00,29.7,26.0,30.37,WNW,294,10.4,10.4,86,0.00,OVC,,0.00,0.0,WeatherDisplay:10.37,2013-02-08 23:20:00,
2013-02-08 17:25:00,29.6,25.9,30.37,NW,306,8.1,8.1,86,0.00,OVC,,0.00,0.0,WeatherDisplay:10.37,2013-02-08 23:25:00,
2013-02-08 17:30:00,29.5,25.8,30.37,NW,305,9.2,9.2,86,0.00,OVC,,0.00,0.0,WeatherDisplay:10.37,2013-02-08 23:30:00,
2013-02-08 17:35:00,29.5,25.8,30.37,NNW,328,9.2,9.2,86,0.00,OVC,,0.00,0.0,WeatherDisplay:10.37,2013-02-08 23:35:00,
2013-02-08 17:40:00,29.4,25.7,30.38,WNW,300,9.2,9.2,86,0.00,OVC,,0.00,0.0,WeatherDisplay:10.37,2013-02-08 23:40:00,
2013-02-08 17:45:00,29.4,25.7,30.38,NW,314,9.2,9.2,86,0.00,OVC,,0.00,0.0,WeatherDisplay:10.37,2013-02-08 23:45:00,
2013-02-08 17:50:00,29.3,25.6,30.38,NW,322,8.0,8.0,86,0.00,OVC,,0.00,0.0,WeatherDisplay:10.37,2013-02-08 23:50:00,
2013-02-08 17:55:00,29.2,25.8,30.38,NW,314,8.1,8.1,87,0.00,OVC,,0.00,0.0,WeatherDisplay:10.37,2013-02-08 23:55:00,
2013-02-08 18:00:00,29.1,25.7,30.38,WNW,294,8.1,8.1,87,0.00,OVC,,0.00,0.0,WeatherDisplay:10.37,2013-02-09 00:00:00,
2013-02-08 18:05:00,28.9,25.5,30.38,NW,315,9.2,9.2,87,0.00,OVC,,0.00,0.0,WeatherDisplay:10.37,2013-02-09 00:05:00,
2013-02-08 18:10:00,28.8,25.7,30.38,NW,316,7.0,7.0,88,0.00,OVC,,0.00,0.0,WeatherDisplay:10.37,2013-02-09 00:10:00,
2013-02-08 18:15:00,28.5,25.4,30.38,NW,314,9.2,9.2,88,0.00,OVC,,0.00,0.0,WeatherDisplay:10.37,2013-02-09 00:15:00,
2013-02-08 18:20:00,28.3,25.2,30.39,NW,314,8.1,8.1,88,0.00,OVC,,0.00,0.0,WeatherDisplay:10.37,2013-02-09 00:20:00,
2013-02-08 18:25:00,28.3,25.2,30.39,NW,309,10.4,10.4,88,0.00,OVC,,0.00,0.0,WeatherDisplay:10.37,2013-02-09 00:25:00,
2013-02-08 18:30:00,28.2,25.1,30.39,NW,309,9.2,9.2,88,0.00,OVC,,0.00,0.0,WeatherDisplay:10.37,2013-02-09 00:30:00,
2013-02-08 18:35:00,28.1,25.3,30.39,NW,312,6.9,6.9,89,0.00,OVC,,0.00,0.0,WeatherDisplay:10.37,2013-02-09 00:35:00,
2013-02-08 18:40:00,28.0,24.9,30.39,NW,304,9.2,9.2,88,0.00,OVC,,0.00,0.0,WeatherDisplay:10.37,2013-02-09 00:40:00,
2013-02-08 18:45:00,28.0,24.9,30.38,NW,315,5.8,5.8,88,0.00,OVC,,0.00,0.0,WeatherDisplay:10.37,2013-02-09 00:45:00,
2013-02-08 18:50:00,28.0,25.2,30.39,NW,310,5.8,5.8,89,0.00,OVC,,0.00,0.0,WeatherDisplay:10.37,2013-02-09 00:50:00,
2013-02-08 18:55:00,27.9,25.1,30.39,NW,310,7.0,7.0,89,0.00,OVC,,0.00,0.0,WeatherDisplay:10.37,2013-02-09 00:55:00,
2013-02-08 19:00:00,27.9,25.1,30.39,WNW,290,5.8,5.8,89,0.00,OVC,,0.00,0.0,WeatherDisplay:10.37,2013-02-09 01:00:00,
2013-02-08 19:05:00,27.9,25.1,30.39,WNW,290,6.0,6.0,89,0.00,OVC,,0.00,0.0,WeatherDisplay:10.37,2013-02-09 01:05:00,
2013-02-08 19:10:00,27.9,25.1,30.39,WNW,290,5.8,5.8,89,0.00,OVC,,0.00,0.0,WeatherDisplay:10.37,2013-02-09 01:10:00,
2013-02-08 19:15:00,27.8,24.7,30.39,WSW,253,5.8,5.8,88,0.00,OVC,,0.00,0.0,WeatherDisplay:10.37,2013-02-09 01:15:00,
2013-02-08 19:21:00,27.8,24.7,30.39,WNW,295,5.0,5.0,88,0.00,OVC,,0.00,0.0,WeatherDisplay:10.37,2013-02-09 01:21:00,
2013-02-08 19:26:00,27.8,24.7,30.40,WNW,296,3.5,3.5,88,0.00,OVC,,0.00,0.0,WeatherDisplay:10.37,2013-02-09 01:26:00,
2013-02-08 19:31:00,27.8,25.0,30.40,WNW,300,4.6,4.6,89,0.00,OVC,,0.00,0.0,WeatherDisplay:10.37,2013-02-09 01:31:00,
2013-02-08 19:36:00,27.8,25.0,30.40,West,259,6.0,6.0,89,0.00,OVC,,0.00,0.0,WeatherDisplay:10.37,2013-02-09 01:36:00,
2013-02-08 19:41:00,27.6,24.8,30.40,NW,309,6.9,6.9,89,0.00,OVC,,0.00,0.0,WeatherDisplay:10.37,2013-02-09 01:41:00,
2013-02-08 19:46:00,27.5,24.7,30.40,NW,312,6.9,6.9,89,0.00,OVC,,0.00,0.0,WeatherDisplay:10.37,2013-02-09 01:46:00,
2013-02-08 19:51:00,27.4,24.6,30.40,NW,319,6.9,6.9,89,0.00,OVC,,0.00,0.0,WeatherDisplay:10.37,2013-02-09 01:51:00,
2013-02-08 19:56:00,27.3,24.5,30.40,NW,313,9.2,9.2,89,0.00,OVC,,0.00,0.0,WeatherDisplay:10.37,2013-02-09 01:56:00,
2013-02-08 20:01:00,27.1,24.3,30.40,NW,308,6.9,6.9,89,0.00,OVC,,0.00,0.0,WeatherDisplay:10.37,2013-02-09 02:01:00,
2013-02-08 20:06:00,27.1,24.3,30.40,NW,307,7.0,7.0,89,0.00,OVC,,0.00,0.0,WeatherDisplay:10.37,2013-02-09 02:06:00,
2013-02-08 20:11:00,27.1,24.3,30.41,NW,307,9.2,9.2,89,0.00,OVC,,0.00,0.0,WeatherDisplay:10.37,2013-02-09 02:11:00,
2013-02-08 20:16:00,27.0,24.2,30.40,NW,319,8.1,8.1,89,0.00,OVC,,0.00,0.0,WeatherDisplay:10.37,2013-02-09 02:16:00,
2013-02-08 20:21:00,27.0,24.2,30.40,WNW,296,6.9,6.9,89,0.00,OVC,,0.00,0.0,WeatherDisplay:10.37,2013-02-09 02:21:00,
2013-02-08 20:26:00,26.9,24.1,30.40,NW,307,8.1,8.1,89,0.00,OVC,,0.00,0.0,WeatherDisplay:10.37,2013-02-09 02:26:00,
2013-02-08 20:31:00,26.8,24.0,30.40,NW,323,6.0,6.0,89,0.00,OVC,,0.00,0.0,WeatherDisplay:10.37,2013-02-09 02:31:00,
2013-02-08 20:36:00,26.8,24.0,30.40,NW,306,8.1,8.1,89,0.00,OVC,,0.00,0.0,WeatherDisplay:10.37,2013-02-09 02:36:00,
2013-02-08 20:41:00,26.7,23.9,30.40,WNW,296,6.9,6.9,89,0.00,OVC,,0.00,0.0,WeatherDisplay:10.37,2013-02-09 02:41:00,
2013-02-08 20:46:00,26.7,23.9,30.40,WNW,294,5.0,5.0,89,0.00,OVC,,0.00,0.0,WeatherDisplay:10.37,2013-02-09 02:46:00,
2013-02-08 20:51:00,26.7,24.2,30.40,NW,313,9.2,9.2,90,0.00,OVC,,0.00,0.0,WeatherDisplay:10.37,2013-02-09 02:51:00,
2013-02-08 20:56:00,26.8,24.3,30.40,NW,313,7.0,7.0,90,0.00,OVC,,0.00,0.0,WeatherDisplay:10.37,2013-02-09 02:56:00,
2013-02-08 21:01:00,26.7,23.9,30.40,NW,317,6.9,6.9,89,0.00,OVC,,0.00,0.0,WeatherDisplay:10.37,2013-02-09 03:01:00,
2013-02-08 21:06:00,26.8,24.3,30.40,NW,307,6.0,6.0,90,0.00,OVC,,0.00,0.0,WeatherDisplay:10.37,2013-02-09 03:06:00,
2013-02-08 21:11:00,26.7,23.9,30.41,NW,312,6.9,6.9,89,0.00,OVC,,0.00,0.0,WeatherDisplay:10.37,2013-02-09 03:11:00,
2013-02-08 21:16:00,26.7,24.2,30.41,WNW,295,7.0,7.0,90,0.00,OVC,,0.00,0.0,WeatherDisplay:10.37,2013-02-09 03:16:00,
2013-02-08 21:21:00,26.7,24.2,30.41,NW,315,6.9,6.9,90,0.00,OVC,,0.00,0.0,WeatherDisplay:10.37,2013-02-09 03:21:00,
2013-02-08 21:26:00,26.7,24.2,30.41,NW,310,5.8,5.8,90,0.00,OVC,,0.00,0.0,WeatherDisplay:10.37,2013-02-09 03:26:00,
2013-02-08 21:31:00,26.7,23.9,30.41,NW,313,6.9,6.9,89,0.00,OVC,,0.00,0.0,WeatherDisplay:10.37,2013-02-09 03:31:00,
2013-02-08 21:36:00,26.7,23.9,30.41,NW,312,5.8,5.8,89,0.00,OVC,,0.00,0.0,WeatherDisplay:10.37,2013-02-09 03:36:00,
2013-02-08 21:41:00,26.7,23.9,30.41,NW,313,4.0,4.0,89,0.00,OVC,,0.00,0.0,WeatherDisplay:10.37,2013-02-09 03:41:00,
2013-02-08 21:46:00,26.8,24.3,30.41,NW,311,6.0,6.0,90,0.00,OVC,,0.00,0.0,WeatherDisplay:10.37,2013-02-09 03:46:00,
2013-02-08 21:51:00,26.8,24.3,30.42,WNW,302,4.6,4.6,90,0.00,OVC,,0.00,0.0,WeatherDisplay:10.37,2013-02-09 03:51:00,
2013-02-08 21:56:00,26.9,24.4,30.42,NW,321,4.6,4.6,90,0.00,OVC,,0.00,0.0,WeatherDisplay:10.37,2013-02-09 03:56:00,
2013-02-08 22:01:00,26.9,24.4,30.42,NW,325,5.0,5.0,90,0.00,OVC,,0.00,0.0,WeatherDisplay:10.37,2013-02-09 04:01:00,
2013-02-08 22:06:00,26.8,24.3,30.41,NNW,327,5.8,5.8,90,0.00,OVC,,0.00,0.0,WeatherDisplay:10.37,2013-02-09 04:06:00,
2013-02-08 22:11:00,26.7,24.2,30.42,NNW,330,5.8,5.8,90,0.00,OVC,,0.00,0.0,WeatherDisplay:10.37,2013-02-09 04:11:00,
2013-02-08 22:16:00,26.6,24.1,30.41,NNW,336,5.0,5.0,90,0.00,OVC,,0.00,0.0,WeatherDisplay:10.37,2013-02-09 04:16:00,
2013-02-08 22:21:00,26.5,24.0,30.42,NW,311,4.6,4.6,90,0.00,OVC,,0.00,0.0,WeatherDisplay:10.37,2013-02-09 04:21:00,
2013-02-08 22:26:00,26.5,24.0,30.42,NW,323,4.6,4.6,90,0.00,OVC,,0.00,0.0,WeatherDisplay:10.37,2013-02-09 04:26:00,
2013-02-08 22:31:00,26.5,24.0,30.42,NW,313,3.5,3.8,90,0.00,OVC,,0.00,0.0,WeatherDisplay:10.37,2013-02-09 04:31:00,
2013-02-08 22:36:00,26.5,24.0,30.41,NNW,327,4.6,4.6,90,0.00,OVC,,0.00,0.0,WeatherDisplay:10.37,2013-02-09 04:36:00,
2013-02-08 22:41:00,26.5,24.0,30.41,NW,314,3.5,3.5,90,0.00,OVC,,0.00,0.0,WeatherDisplay:10.37,2013-02-09 04:41:00,
2013-02-08 22:46:00,26.5,24.0,30.41,NNW,327,4.0,4.0,90,0.00,OVC,,0.00,0.0,WeatherDisplay:10.37,2013-02-09 04:46:00,
2013-02-08 22:51:00,26.5,24.0,30.41,NW,320,4.6,4.6,90,0.00,OVC,,0.00,0.0,WeatherDisplay:10.37,2013-02-09 04:51:00,
2013-02-08 22:56:00,26.5,24.0,30.41,NW,323,4.6,4.6,90,0.00,OVC,,0.00,0.0,WeatherDisplay:10.37,2013-02-09 04:56:00,
2013-02-08 23:00:00,26.5,24.0,30.40,NW,316,3.5,3.5,90,0.00,OVC,,0.00,0.0,WeatherDisplay:10.37,2013-02-09 05:00:00,
2013-02-08 23:05:00,26.5,24.0,30.41,NW,323,4.0,4.0,90,0.00,OVC,,0.00,0.0,WeatherDisplay:10.37,2013-02-09 05:05:00,
2013-02-08 23:10:00,26.4,23.9,30.40,NW,315,3.5,3.5,90,0.00,OVC,,0.00,0.0,WeatherDisplay:10.37,2013-02-09 05:10:00,
2013-02-08 23:15:00,26.5,24.0,30.41,NW,321,2.3,2.3,90,0.00,OVC,,0.00,0.0,WeatherDisplay:10.37,2013-02-09 05:15:00,
2013-02-08 23:20:00,26.5,24.0,30.41,NW,311,3.5,3.5,90,0.00,OVC,,0.00,0.0,WeatherDisplay:10.37,2013-02-09 05:20:00,
2013-02-08 23:25:00,26.5,24.0,30.42,NW,307,3.5,3.5,90,0.00,OVC,,0.00,0.0,WeatherDisplay:10.37,2013-02-09 05:25:00,
2013-02-08 23:30:00,26.5,24.0,30.41,NW,310,3.5,3.5,90,0.00,OVC,,0.00,0.0,WeatherDisplay:10.37,2013-02-09 05:30:00,
2013-02-08 23:35:00,26.6,24.1,30.42,NW,310,1.1,1.1,90,0.00,OVC,,0.00,0.0,WeatherDisplay:10.37,2013-02-09 05:35:00,
2013-02-08 23:40:00,26.6,24.1,30.42,NW,311,3.5,3.5,90,0.00,OVC,,0.00,0.0,WeatherDisplay:10.37,2013-02-09 05:40:00,
2013-02-08 23:45:00,26.7,24.2,30.42,NW,310,2.3,2.3,90,0.00,OVC,,0.00,0.0,WeatherDisplay:10.37,2013-02-09 05:45:00,
2013-02-08 23:50:00,26.7,24.2,30.42,NW,309,2.3,2.3,90,0.00,OVC,,0.00,0.0,WeatherDisplay:10.37,2013-02-09 05:50:00,
2013-02-08 23:55:00,26.8,24.3,30.42,NW,309,4.0,4.0,90,0.00,OVC,,0.00,0.0,WeatherDisplay:10.37,2013-02-09 05:55:00,